createdAt,value
2017-12-17T00:00:52.959Z,84.47
2017-12-17T00:03:20.925Z,84.22
2017-12-17T00:05:48.509Z,84.46
2017-12-17T00:08:16.445Z,84.44
2017-12-17T00:10:44.074Z,84.50
2017-12-17T00:13:11.683Z,84.42
2017-12-17T00:15:39.347Z,83.93
2017-12-17T00:18:06.951Z,84.35
2017-12-17T00:20:34.532Z,84.11
2017-12-17T00:23:02.141Z,84.11
2017-12-17T00:25:29.995Z,84.01
2017-12-17T00:27:57.654Z,83.71
2017-12-17T00:30:25.260Z,83.59
2017-12-17T00:32:52.861Z,83.38
2017-12-17T00:35:20.742Z,83.78
2017-12-17T00:37:48.336Z,83.32
2017-12-17T00:40:15.935Z,83.43
2017-12-17T00:42:43.555Z,83.52
2017-12-17T00:45:11.160Z,83.45
2017-12-17T00:47:38.745Z,83.64
2017-12-17T00:50:06.625Z,84.03
2017-12-17T00:52:34.208Z,84.16
2017-12-17T00:55:01.819Z,84.07
2017-12-17T00:57:29.444Z,83.90
2017-12-17T00:59:57.064Z,83.67
2017-12-17T01:02:24.689Z,84.03
2017-12-17T01:04:52.284Z,83.97
2017-12-17T01:07:19.880Z,84.23
2017-12-17T01:09:47.505Z,83.99
2017-12-17T01:12:15.080Z,83.96
2017-12-17T01:14:42.707Z,84.28
2017-12-17T01:17:10.329Z,84.36
2017-12-17T01:19:37.943Z,84.67
2017-12-17T01:22:05.832Z,84.94
2017-12-17T01:24:33.405Z,85.10
2017-12-17T01:27:01.041Z,84.92
2017-12-17T01:29:28.636Z,84.63
2017-12-17T01:31:56.263Z,84.56
2017-12-17T01:34:23.884Z,84.80
2017-12-17T01:36:51.483Z,84.71
2017-12-17T01:39:19.170Z,84.72
2017-12-17T01:41:47.133Z,85.11
2017-12-17T01:44:14.780Z,85.49
2017-12-17T01:46:42.392Z,85.52
2017-12-17T01:49:09.994Z,85.22
2017-12-17T01:51:37.640Z,85.34
2017-12-17T01:54:05.504Z,85.57
2017-12-17T01:56:33.096Z,85.57
2017-12-17T01:59:00.744Z,86.17
2017-12-17T02:01:28.320Z,86.35
2017-12-17T02:03:55.950Z,86.71
2017-12-17T02:06:23.569Z,86.29
2017-12-17T02:08:51.187Z,86.56
2017-12-17T02:11:18.808Z,86.64
2017-12-17T02:13:46.402Z,86.50
2017-12-17T02:16:14.040Z,86.51
2017-12-17T02:18:41.633Z,86.08
2017-12-17T02:21:09.212Z,86.08
2017-12-17T02:23:36.831Z,86.13
2017-12-17T02:26:04.759Z,86.10
2017-12-17T02:28:32.658Z,86.30
2017-12-17T02:31:00.300Z,86.31
2017-12-17T02:33:27.911Z,86.49
2017-12-17T02:35:55.531Z,86.54
2017-12-17T02:38:23.152Z,86.55
2017-12-17T02:40:50.777Z,86.33
2017-12-17T02:43:18.368Z,86.35
2017-12-17T02:45:45.998Z,86.07
2017-12-17T02:48:13.611Z,86.05
2017-12-17T02:50:41.247Z,85.73
2017-12-17T02:53:08.900Z,85.42
2017-12-17T02:55:36.497Z,85.34
2017-12-17T02:58:04.100Z,85.35
2017-12-17T03:00:31.704Z,85.50
2017-12-17T03:02:59.299Z,86.00
2017-12-17T03:05:27.171Z,85.67
2017-12-17T03:07:54.767Z,85.35
2017-12-17T03:10:22.356Z,85.48
2017-12-17T03:12:49.991Z,86.45
2017-12-17T03:15:17.567Z,86.50
2017-12-17T03:17:45.481Z,86.71
2017-12-17T03:20:13.103Z,86.61
2017-12-17T03:22:40.694Z,87.16
2017-12-17T03:25:08.316Z,87.14
2017-12-17T03:27:36.236Z,87.23
2017-12-17T03:30:04.108Z,87.33
2017-12-17T03:32:31.700Z,87.58
2017-12-17T03:34:59.280Z,88.09
2017-12-17T03:37:26.895Z,88.14
2017-12-17T03:39:54.484Z,88.54
2017-12-17T03:42:22.125Z,88.39
2017-12-17T03:44:49.758Z,88.38
2017-12-17T03:47:17.655Z,88.30
2017-12-17T03:49:45.298Z,88.44
2017-12-17T03:52:12.896Z,88.25
2017-12-17T03:54:40.538Z,88.06
2017-12-17T03:57:08.118Z,87.73
2017-12-17T03:59:35.720Z,87.57
2017-12-17T04:02:03.339Z,87.66
2017-12-17T04:04:30.936Z,87.12
2017-12-17T04:06:58.573Z,87.21
2017-12-17T04:09:26.156Z,87.23
2017-12-17T04:11:53.763Z,87.11
2017-12-17T04:14:21.369Z,87.34
2017-12-17T04:16:48.982Z,87.13
2017-12-17T04:19:16.608Z,87.26
2017-12-17T04:21:44.216Z,87.36
2017-12-17T04:24:12.088Z,87.25
2017-12-17T04:26:39.944Z,85.75
2017-12-17T04:29:07.520Z,84.20
2017-12-17T04:31:35.131Z,84.34
2017-12-17T04:34:02.719Z,84.42
2017-12-17T04:36:30.405Z,85.61
2017-12-17T04:38:58.008Z,85.53
2017-12-17T04:41:25.585Z,86.56
2017-12-17T04:43:53.196Z,87.07
2017-12-17T04:46:21.054Z,87.93
2017-12-17T04:48:48.920Z,88.10
2017-12-17T04:51:16.789Z,87.87
2017-12-17T04:53:44.360Z,87.30
2017-12-17T04:56:11.987Z,88.26
2017-12-17T04:58:39.576Z,88.31
2017-12-17T05:01:07.159Z,87.45
2017-12-17T05:03:34.776Z,88.05
2017-12-17T05:06:02.350Z,88.29
2017-12-17T05:08:29.970Z,88.12
2017-12-17T05:10:57.552Z,88.24
2017-12-17T05:13:25.142Z,87.78
2017-12-17T05:15:52.763Z,87.78
2017-12-17T05:18:20.363Z,87.39
2017-12-17T05:20:48.237Z,87.00
2017-12-17T05:23:16.094Z,87.23
2017-12-17T05:25:43.680Z,87.97
2017-12-17T05:28:11.293Z,87.98
2017-12-17T05:30:39.186Z,87.44
2017-12-17T05:33:07.157Z,87.51
2017-12-17T05:35:34.740Z,87.60
2017-12-17T05:38:02.337Z,87.79
2017-12-17T05:40:29.944Z,87.88
2017-12-17T05:42:57.520Z,87.83
2017-12-17T05:45:25.150Z,87.52
2017-12-17T05:47:52.741Z,87.56
2017-12-17T05:50:20.593Z,87.45
2017-12-17T05:52:48.207Z,87.31
2017-12-17T05:55:16.133Z,87.10
2017-12-17T05:57:44.586Z,87.25
2017-12-17T06:00:12.188Z,87.35
2017-12-17T06:02:39.810Z,87.57
2017-12-17T06:05:07.431Z,87.71
2017-12-17T06:07:35.029Z,87.62
2017-12-17T06:10:02.668Z,86.82
2017-12-17T06:12:30.276Z,87.62
2017-12-17T06:14:57.855Z,87.49
2017-12-17T06:17:25.452Z,87.38
2017-12-17T06:19:53.038Z,87.38
2017-12-17T06:22:20.671Z,87.49
2017-12-17T06:24:48.256Z,87.72
2017-12-17T06:27:15.873Z,87.90
2017-12-17T06:29:43.485Z,87.15
2017-12-17T06:32:11.381Z,87.48
2017-12-17T06:34:39.025Z,86.79
2017-12-17T06:37:06.607Z,87.11
2017-12-17T06:39:34.489Z,87.13
2017-12-17T06:42:02.441Z,86.97
2017-12-17T06:44:30.346Z,87.20
2017-12-17T06:46:58.000Z,86.30
2017-12-17T06:49:25.954Z,86.64
2017-12-17T06:51:53.527Z,87.05
2017-12-17T06:54:21.137Z,86.86
2017-12-17T06:56:48.741Z,86.19
2017-12-17T06:59:16.704Z,86.38
2017-12-17T07:01:44.573Z,85.89
2017-12-17T07:04:16.052Z,85.53
2017-12-17T07:06:43.664Z,86.06
2017-12-17T07:09:11.250Z,86.50
2017-12-17T07:11:38.860Z,85.73
2017-12-17T07:14:06.447Z,85.78
2017-12-17T07:16:34.076Z,84.65
2017-12-17T07:19:01.909Z,84.66
2017-12-17T07:21:29.503Z,85.35
2017-12-17T07:23:57.124Z,85.54
2017-12-17T07:26:24.709Z,85.02
2017-12-17T07:28:52.353Z,85.44
2017-12-17T07:31:19.953Z,85.07
2017-12-17T07:33:47.576Z,85.63
2017-12-17T07:36:15.202Z,85.88
2017-12-17T07:38:42.796Z,85.68
2017-12-17T07:41:10.764Z,85.83
2017-12-17T07:43:38.385Z,86.00
2017-12-17T07:46:05.972Z,85.87
2017-12-17T07:48:33.592Z,85.33
2017-12-17T07:51:01.190Z,85.74
2017-12-17T07:53:28.827Z,85.32
2017-12-17T07:55:56.436Z,85.50
2017-12-17T07:58:24.033Z,84.85
2017-12-17T08:00:51.963Z,85.11
2017-12-17T08:03:19.551Z,84.66
2017-12-17T08:05:47.191Z,84.74
2017-12-17T08:08:14.775Z,85.02
2017-12-17T08:10:42.376Z,84.83
2017-12-17T08:13:09.983Z,84.16
2017-12-17T08:15:37.563Z,84.74
2017-12-17T08:18:05.198Z,84.36
2017-12-17T08:20:32.789Z,84.52
2017-12-17T08:23:00.377Z,84.94
2017-12-17T08:25:28.285Z,84.25
2017-12-17T08:27:55.952Z,84.03
2017-12-17T08:30:23.570Z,84.86
2017-12-17T08:32:51.163Z,85.21
2017-12-17T08:35:18.752Z,84.52
2017-12-17T08:37:46.704Z,84.63
2017-12-17T08:40:14.284Z,84.37
2017-12-17T08:42:41.928Z,84.16
2017-12-17T08:45:09.809Z,83.49
2017-12-17T08:47:37.440Z,84.17
2017-12-17T08:50:05.048Z,84.46
2017-12-17T08:52:32.644Z,83.78
2017-12-17T08:55:00.557Z,83.11
2017-12-17T08:57:28.161Z,83.92
2017-12-17T08:59:56.196Z,83.84
2017-12-17T09:02:23.808Z,83.21
2017-12-17T09:04:51.824Z,82.89
2017-12-17T09:07:19.795Z,82.29
2017-12-17T09:09:47.385Z,82.08
2017-12-17T09:12:14.964Z,82.17
2017-12-17T09:14:42.628Z,82.75
2017-12-17T09:17:10.266Z,82.60
2017-12-17T09:19:37.904Z,81.79
2017-12-17T09:22:05.497Z,81.30
2017-12-17T09:24:34.048Z,81.39
2017-12-17T09:27:01.669Z,82.60
2017-12-17T09:29:29.333Z,82.50
2017-12-17T09:31:56.976Z,82.98
2017-12-17T09:34:24.556Z,83.33
2017-12-17T09:36:52.162Z,83.88
2017-12-17T09:39:19.788Z,83.26
2017-12-17T09:41:47.373Z,83.51
2017-12-17T09:44:14.995Z,84.33
2017-12-17T09:46:42.576Z,84.67
2017-12-17T09:49:10.176Z,85.01
2017-12-17T09:51:37.816Z,85.25
2017-12-17T09:54:05.397Z,86.40
2017-12-17T09:56:32.981Z,85.13
2017-12-17T09:59:00.954Z,85.01
2017-12-17T10:01:28.552Z,85.11
2017-12-17T10:03:56.145Z,85.14
2017-12-17T10:06:23.773Z,85.19
2017-12-17T10:08:51.384Z,85.19
2017-12-17T10:11:19.341Z,84.85
2017-12-17T10:13:46.960Z,84.75
2017-12-17T10:16:14.542Z,84.36
2017-12-17T10:18:42.140Z,84.92
2017-12-17T10:21:09.819Z,84.12
2017-12-17T10:23:37.404Z,84.18
2017-12-17T10:26:05.041Z,84.59
2017-12-17T10:28:32.679Z,84.20
2017-12-17T10:31:00.317Z,83.47
2017-12-17T10:33:27.930Z,83.43
2017-12-17T10:35:55.550Z,83.47
2017-12-17T10:38:23.227Z,83.27
2017-12-17T10:40:50.837Z,82.38
2017-12-17T10:43:18.449Z,82.69
2017-12-17T10:45:46.418Z,81.78
2017-12-17T10:48:14.081Z,81.39
2017-12-17T10:50:41.716Z,82.21
2017-12-17T10:53:09.608Z,82.79
2017-12-17T10:55:37.476Z,82.71
2017-12-17T10:58:05.085Z,82.57
2017-12-17T11:00:33.009Z,82.99
2017-12-17T11:03:00.638Z,82.76
2017-12-17T11:05:28.229Z,82.35
2017-12-17T11:07:55.902Z,81.87
2017-12-17T11:10:23.761Z,82.11
2017-12-17T11:12:51.391Z,81.71
2017-12-17T11:15:19.048Z,80.71
2017-12-17T11:17:46.624Z,81.44
2017-12-17T11:20:14.219Z,81.39
2017-12-17T11:22:42.068Z,81.45
2017-12-17T11:25:09.701Z,82.09
2017-12-17T11:27:37.358Z,80.80
2017-12-17T11:30:04.940Z,81.32
2017-12-17T11:32:32.533Z,79.75
2017-12-17T11:35:00.224Z,80.83
2017-12-17T11:37:27.844Z,81.43
2017-12-17T11:39:55.487Z,81.82
2017-12-17T11:42:23.126Z,80.79
2017-12-17T11:44:50.728Z,81.20
2017-12-17T11:47:18.355Z,80.50
2017-12-17T11:49:46.993Z,79.58
2017-12-17T11:52:14.615Z,80.03
2017-12-17T11:54:42.521Z,80.70
2017-12-17T11:57:10.385Z,80.58
2017-12-17T11:59:37.995Z,80.63
2017-12-17T12:02:05.572Z,81.52
2017-12-17T12:04:33.223Z,81.28
2017-12-17T12:07:00.807Z,81.72
2017-12-17T12:09:28.434Z,81.26
2017-12-17T12:11:56.097Z,81.22
2017-12-17T12:14:23.753Z,81.29
2017-12-17T12:16:51.377Z,80.89
2017-12-17T12:19:19.251Z,80.69
2017-12-17T12:21:46.825Z,80.27
2017-12-17T12:24:15.228Z,81.28
2017-12-17T12:26:42.821Z,81.48
2017-12-17T12:29:10.457Z,80.11
2017-12-17T12:31:38.043Z,80.55
2017-12-17T12:34:05.682Z,81.03
2017-12-17T12:36:33.330Z,81.36
2017-12-17T12:39:00.908Z,81.52
2017-12-17T12:41:28.551Z,81.63
2017-12-17T12:43:56.396Z,81.50
2017-12-17T12:46:23.987Z,81.32
2017-12-17T12:48:51.615Z,81.05
2017-12-17T12:51:19.697Z,80.56
2017-12-17T12:56:21.075Z,81.31
2017-12-17T12:58:48.776Z,80.96
2017-12-17T13:01:16.807Z,80.80
2017-12-17T13:03:44.426Z,81.16
2017-12-17T13:06:12.055Z,81.65
2017-12-17T13:08:39.644Z,80.68
2017-12-17T13:11:07.293Z,81.07
2017-12-17T13:13:34.884Z,80.48
2017-12-17T13:16:02.785Z,80.08
2017-12-17T13:18:30.393Z,79.03
2017-12-17T13:20:57.988Z,78.69
2017-12-17T13:23:25.611Z,77.72
2017-12-17T13:25:53.209Z,77.79
2017-12-17T13:28:20.795Z,77.23
2017-12-17T13:30:48.413Z,78.11
2017-12-17T13:33:16.318Z,77.66
2017-12-17T13:35:43.928Z,77.61
2017-12-17T13:38:11.509Z,77.95
2017-12-17T13:40:39.120Z,78.17
2017-12-17T13:43:06.772Z,78.25
2017-12-17T13:45:34.629Z,76.87
2017-12-17T13:48:02.602Z,77.47
2017-12-17T13:50:30.186Z,77.91
2017-12-17T13:52:57.785Z,78.01
2017-12-17T13:55:25.693Z,78.03
2017-12-17T13:57:53.555Z,77.17
2017-12-17T14:00:21.424Z,77.64
2017-12-17T14:02:49.268Z,77.74
2017-12-17T14:05:16.847Z,77.22
2017-12-17T14:07:44.453Z,76.72
2017-12-17T14:10:12.023Z,76.71
2017-12-17T14:12:39.653Z,77.25
2017-12-17T14:15:07.242Z,76.00
2017-12-17T14:17:35.206Z,75.11
2017-12-17T14:20:03.139Z,76.23
2017-12-17T14:22:30.968Z,76.78
2017-12-17T14:24:58.577Z,76.63
2017-12-17T14:27:26.239Z,76.50
2017-12-17T14:29:53.885Z,77.48
2017-12-17T14:32:21.512Z,76.98
2017-12-17T14:34:49.084Z,76.41
2017-12-17T14:37:16.712Z,76.49
2017-12-17T14:39:44.300Z,76.13
2017-12-17T14:42:11.895Z,75.88
2017-12-17T14:44:39.565Z,75.64
2017-12-17T14:47:07.157Z,75.92
2017-12-17T14:49:34.780Z,76.55
2017-12-17T14:52:02.380Z,76.60
2017-12-17T14:54:29.997Z,75.68
2017-12-17T14:56:57.881Z,75.96
2017-12-17T14:59:25.747Z,75.05
2017-12-17T15:01:53.721Z,75.37
2017-12-17T15:04:21.315Z,75.16
2017-12-17T15:06:48.891Z,75.24
2017-12-17T15:09:16.813Z,76.32
2017-12-17T15:11:44.680Z,75.31
2017-12-17T15:14:12.309Z,75.24
2017-12-17T15:16:39.899Z,75.16
2017-12-17T15:19:07.597Z,75.17
2017-12-17T15:21:35.276Z,75.89
2017-12-17T15:24:02.876Z,75.65
2017-12-17T15:26:30.549Z,76.31
2017-12-17T15:28:58.198Z,76.39
2017-12-17T15:31:26.098Z,76.69
2017-12-17T15:33:53.714Z,76.54
2017-12-17T15:36:21.312Z,76.37
2017-12-17T15:38:49.007Z,77.94
2017-12-17T15:41:16.654Z,78.08
2017-12-17T15:43:44.609Z,78.45
2017-12-17T15:46:12.477Z,78.78
2017-12-17T15:48:40.134Z,79.11
2017-12-17T15:51:07.770Z,79.03
2017-12-17T15:53:35.352Z,78.39
2017-12-17T15:56:02.952Z,77.24
2017-12-17T15:58:30.548Z,77.16
2017-12-17T16:00:58.461Z,77.38
2017-12-17T16:03:26.088Z,77.26
2017-12-17T16:05:53.681Z,77.08
2017-12-17T16:08:21.328Z,77.30
2017-12-17T16:10:48.952Z,77.79
2017-12-17T16:13:16.539Z,78.04
2017-12-17T16:15:44.169Z,78.17
2017-12-17T16:18:11.767Z,78.81
2017-12-17T16:20:39.392Z,79.09
2017-12-17T16:23:07.008Z,78.68
2017-12-17T16:25:34.579Z,78.82
2017-12-17T16:28:02.205Z,79.11
2017-12-17T16:30:29.800Z,78.83
2017-12-17T16:32:57.431Z,78.76
2017-12-17T16:35:25.071Z,79.11
2017-12-17T16:37:52.656Z,78.66
2017-12-17T16:40:20.601Z,79.28
2017-12-17T16:42:48.263Z,79.63
2017-12-17T16:45:15.884Z,79.29
2017-12-17T16:47:43.544Z,79.39
2017-12-17T16:50:11.212Z,79.62
2017-12-17T16:52:38.865Z,79.57
2017-12-17T16:55:06.476Z,79.49
2017-12-17T16:57:34.076Z,79.35
2017-12-17T17:00:01.778Z,79.29
2017-12-17T17:02:29.502Z,79.33
2017-12-17T17:04:57.138Z,78.71
2017-12-17T17:07:24.923Z,79.05
2017-12-17T17:09:52.684Z,79.16
2017-12-17T17:12:20.311Z,79.49
2017-12-17T17:14:47.903Z,79.21
2017-12-17T17:17:15.520Z,78.97
2017-12-17T17:19:43.104Z,79.25
2017-12-17T17:22:10.738Z,79.34
2017-12-17T17:24:38.694Z,79.36
2017-12-17T17:27:06.579Z,78.51
2017-12-17T17:29:34.242Z,78.83
2017-12-17T17:32:01.868Z,78.78
2017-12-17T17:34:29.505Z,79.42
2017-12-17T17:36:57.441Z,79.49
2017-12-17T17:39:25.133Z,79.60
2017-12-17T17:41:52.799Z,79.11
2017-12-17T17:44:20.395Z,79.41
2017-12-17T17:46:48.390Z,79.36
2017-12-17T17:49:16.012Z,79.41
2017-12-17T17:51:43.715Z,79.75
2017-12-17T17:54:11.351Z,79.62
2017-12-17T17:56:39.031Z,79.64
2017-12-17T17:59:06.621Z,79.81
2017-12-17T18:01:34.240Z,78.90
2017-12-17T18:04:01.869Z,79.32
2017-12-17T18:06:29.498Z,79.67
2017-12-17T18:08:57.128Z,79.44
2017-12-17T18:11:24.742Z,78.83
2017-12-17T18:13:52.348Z,78.96
2017-12-17T18:16:19.976Z,78.60
2017-12-17T18:18:50.566Z,78.21
2017-12-17T18:21:18.188Z,78.58
2017-12-17T18:23:45.810Z,78.77
2017-12-17T18:26:13.393Z,78.40
2017-12-17T18:28:41.030Z,78.30
2017-12-17T18:31:08.877Z,78.18
2017-12-17T18:33:37.014Z,78.58
2017-12-17T18:36:05.661Z,77.79
2017-12-17T18:38:34.264Z,77.61
2017-12-17T18:41:01.988Z,77.09
2017-12-17T18:43:29.642Z,77.29
2017-12-17T18:45:57.260Z,78.17
2017-12-17T18:48:24.926Z,77.82
2017-12-17T18:50:52.745Z,78.00
2017-12-17T18:53:20.411Z,77.96
2017-12-17T18:55:48.389Z,78.14
2017-12-17T18:58:16.030Z,78.10
2017-12-17T19:00:43.682Z,77.40
2017-12-17T19:03:11.284Z,77.82
2017-12-17T19:05:39.236Z,77.50
2017-12-17T19:08:06.823Z,77.32
2017-12-17T19:10:34.454Z,77.71
2017-12-17T19:13:02.076Z,77.76
2017-12-17T19:15:29.657Z,78.12
2017-12-17T19:17:58.280Z,77.98
2017-12-17T19:20:25.860Z,78.10
2017-12-17T19:22:53.484Z,77.34
2017-12-17T19:25:21.142Z,77.92
2017-12-17T19:27:48.786Z,77.57
2017-12-17T19:30:16.412Z,77.53
2017-12-17T19:32:43.991Z,77.35
2017-12-17T19:35:11.592Z,77.55
2017-12-17T19:37:39.232Z,77.52
2017-12-17T19:40:07.141Z,78.15
2017-12-17T19:42:34.774Z,77.37
2017-12-17T19:45:02.669Z,77.49
2017-12-17T19:47:30.270Z,78.25
2017-12-17T19:49:57.864Z,77.85
2017-12-17T19:52:25.466Z,77.91
2017-12-17T19:54:53.517Z,77.57
2017-12-17T19:57:21.133Z,77.99
2017-12-17T19:59:48.711Z,78.10
2017-12-17T20:02:16.374Z,78.27
2017-12-17T20:04:43.965Z,78.42
2017-12-17T20:07:11.622Z,78.45
2017-12-17T20:09:39.258Z,77.86
2017-12-17T20:12:06.852Z,77.91
2017-12-17T20:14:34.483Z,78.45
2017-12-17T20:17:02.089Z,78.05
2017-12-17T20:19:29.840Z,78.10
2017-12-17T20:21:57.820Z,78.61
2017-12-17T20:24:25.435Z,78.73
2017-12-17T20:26:54.777Z,78.58
2017-12-17T20:29:20.720Z,78.96
2017-12-17T20:31:48.347Z,78.86
2017-12-17T20:34:16.026Z,78.23
2017-12-17T20:36:43.896Z,77.97
2017-12-17T20:39:11.538Z,77.79
2017-12-17T20:41:39.452Z,78.26
2017-12-17T20:44:07.137Z,78.25
2017-12-17T20:46:35.066Z,78.27
2017-12-17T20:49:02.742Z,78.24
2017-12-17T20:51:30.390Z,78.72
2017-12-17T20:53:57.989Z,78.73
2017-12-17T20:56:25.612Z,78.78
2017-12-17T20:58:53.210Z,79.17
2017-12-17T21:01:20.788Z,79.42
2017-12-17T21:03:48.445Z,79.17
2017-12-17T21:06:16.060Z,79.82
2017-12-17T21:08:43.929Z,79.56
2017-12-17T21:11:11.803Z,79.42
2017-12-17T21:13:39.439Z,79.72
2017-12-17T21:16:07.061Z,79.49
2017-12-17T21:18:34.658Z,79.55
2017-12-17T21:21:02.291Z,78.97
2017-12-17T21:23:29.887Z,79.06
2017-12-17T21:25:57.929Z,79.08
2017-12-17T21:28:25.586Z,79.32
2017-12-17T21:30:53.509Z,79.56
2017-12-17T21:33:21.477Z,79.29
2017-12-17T21:35:49.634Z,79.29
2017-12-17T21:38:17.231Z,78.97
2017-12-17T21:40:45.200Z,78.90
2017-12-17T21:43:12.787Z,78.98
2017-12-17T21:45:40.430Z,78.40
2017-12-17T21:48:08.085Z,78.17
2017-12-17T21:50:35.672Z,78.38
2017-12-17T21:53:03.304Z,77.91
2017-12-17T21:55:30.942Z,76.55
2017-12-17T21:57:58.594Z,76.35
2017-12-17T22:00:26.197Z,76.81
2017-12-17T22:02:53.792Z,76.92
2017-12-17T22:05:21.408Z,76.94
2017-12-17T22:07:48.984Z,75.75
2017-12-17T22:10:16.613Z,75.38
2017-12-17T22:12:44.194Z,74.40
2017-12-17T22:15:11.780Z,73.80
2017-12-17T22:17:39.411Z,73.22
2017-12-17T22:20:06.988Z,73.94
2017-12-17T22:22:34.621Z,74.69
2017-12-17T22:25:02.208Z,74.80
2017-12-17T22:27:29.842Z,75.11
2017-12-17T22:29:57.456Z,74.73
2017-12-17T22:32:25.068Z,74.77
2017-12-17T22:34:52.725Z,74.90
2017-12-17T22:37:20.394Z,75.40
2017-12-17T22:39:47.981Z,75.66
2017-12-17T22:42:15.651Z,76.47
2017-12-17T22:44:43.604Z,76.59
2017-12-17T22:47:11.581Z,77.31
2017-12-17T22:49:39.195Z,77.53
2017-12-17T22:52:06.831Z,71.00
2017-12-17T22:54:34.770Z,70.06
2017-12-17T22:57:02.354Z,72.22
2017-12-17T22:59:29.985Z,74.27
2017-12-17T23:01:57.579Z,75.48
2017-12-17T23:04:25.201Z,76.32
2017-12-17T23:06:52.824Z,76.71
2017-12-17T23:09:20.748Z,76.90
2017-12-17T23:11:48.715Z,77.60
2017-12-17T23:14:16.294Z,77.32
2017-12-17T23:16:43.886Z,76.88
2017-12-17T23:19:11.499Z,77.23
2017-12-17T23:21:39.372Z,76.75
2017-12-17T23:24:06.992Z,77.01
2017-12-17T23:26:34.571Z,77.29
2017-12-17T23:29:02.279Z,77.09
2017-12-17T23:31:29.896Z,76.87
2017-12-17T23:33:57.480Z,75.63
2017-12-17T23:36:25.190Z,75.49
2017-12-17T23:38:52.786Z,72.77
2017-12-17T23:41:20.367Z,72.21
2017-12-17T23:43:48.004Z,73.43
2017-12-17T23:46:15.844Z,73.86
2017-12-17T23:48:43.462Z,73.53
2017-12-17T23:51:11.048Z,72.98
2017-12-17T23:53:38.633Z,72.81
2017-12-17T23:56:06.246Z,73.56
2017-12-17T23:58:33.871Z,75.47
